GMTA

Cherif Al Idrissi Airport

Al Hoceima, Morocco
TAF GMTA 181700Z 1818/1924 34006KT CAVOK PROB30 1823/1907 3000 BR BKN008
Issued Valid From Valid To
Jul-18 @ 17:00 UTC
(5 hours ago)
Jul-18 @ 18:00 UTC
(4 hours ago)
Jul-20 @ 00:00 UTC
(-1 days ago)
Jul-18 @ 18:00 to Jul-20 @ 00:00
TAF GMTA 181700Z 1818/1924 34006KT CAVOK
Wind Visibility Clouds Conditions
340° at 6 knots 10,000+ meters
  • No significant clouds
Probable  (Probability 30%) Jul-18 @ 23:00 to Jul-19 @ 07:00
PROB30 1823/1907 3000 BR BKN008
Visibility Clouds Conditions
2,993 meters
  • Broken at 800' AGL
  • Mist
TAF GMTA 181700Z 1818/1924 34006KT CAVOK PROB30 1823/1907 3000 BR BKN008
Issued Jul-18 @ 17:00 UTC
(5 hours ago)
Valid From Jul-18 @ 18:00 UTC
(4 hours ago)
Valid To Jul-20 @ 00:00 UTC
(-1 days ago)
Jul-18 @ 18:00 - Jul-20 @ 00:00
Wind Visibility
340° at 6 knots 10,000+ meters
Clouds
  • No significant clouds
Conditions
Probability 30% Probable Jul-18 @ 23:00 - Jul-19 @ 07:00
Clouds
  • Broken at 800' AGL
Conditions
  • Mist